createdAt,value
2022-11-09T00:02:09.210Z,477.73
2022-11-09T00:04:57.169Z,465.30
2022-11-09T00:07:45.086Z,459.40
2022-11-09T00:10:33.254Z,456.50
2022-11-09T00:13:21.867Z,455.50
2022-11-09T00:16:12.523Z,404.95
2022-11-09T00:19:01.817Z,409.33
2022-11-09T00:21:50.033Z,384.27
2022-11-09T00:24:37.929Z,391.35
2022-11-09T00:27:25.827Z,372.88
2022-11-09T00:30:14.042Z,377.23
2022-11-09T00:33:01.974Z,382.05
2022-11-09T00:35:51.255Z,373.05
2022-11-09T00:38:40.697Z,349.23
2022-11-09T00:41:29.110Z,344.25
2022-11-09T00:44:17.074Z,349.30
2022-11-09T00:47:05.511Z,352.90
2022-11-09T00:49:53.410Z,342.65
2022-11-09T00:52:42.770Z,350.45
2022-11-09T00:55:30.679Z,349.25
2022-11-09T00:58:18.820Z,346.17
2022-11-09T01:01:08.713Z,348.02
2022-11-09T01:03:56.710Z,344.40
2022-11-09T01:06:44.826Z,361.65
2022-11-09T01:09:34.240Z,355.52
2022-11-09T01:12:22.137Z,386.17
2022-11-09T01:15:12.552Z,361.30
2022-11-09T01:18:00.504Z,385.95
2022-11-09T01:20:49.739Z,396.85
2022-11-09T01:23:38.260Z,397.88
2022-11-09T01:26:27.538Z,385.02
2022-11-09T01:29:15.488Z,409.15
2022-11-09T01:32:03.480Z,401.10
2022-11-09T01:34:52.843Z,387.33
2022-11-09T01:37:40.751Z,393.63
2022-11-09T01:40:32.015Z,383.40
2022-11-09T01:43:24.466Z,376.13
2022-11-09T01:46:19.055Z,408.08
2022-11-09T01:49:14.285Z,380.15
2022-11-09T01:52:07.024Z,392.83
2022-11-09T01:55:00.097Z,407.23
2022-11-09T01:57:52.989Z,410.58
2022-11-09T02:00:46.942Z,412.00
2022-11-09T02:03:38.767Z,407.35
2022-11-09T02:06:29.944Z,396.00
2022-11-09T02:09:27.673Z,423.83
2022-11-09T02:12:18.487Z,383.05
2022-11-09T02:15:11.243Z,414.70
2022-11-09T02:18:01.260Z,395.77
2022-11-09T02:20:53.126Z,408.25
2022-11-09T02:23:43.621Z,415.15
2022-11-09T02:26:35.691Z,439.80
2022-11-09T02:29:27.248Z,389.05
2022-11-09T02:32:20.620Z,411.05
2022-11-09T02:35:10.532Z,393.95
2022-11-09T02:37:59.862Z,435.70
2022-11-09T02:40:52.768Z,382.00
2022-11-09T02:43:41.728Z,409.20
2022-11-09T02:46:34.521Z,417.05
2022-11-09T02:49:23.033Z,412.92
2022-11-09T02:52:11.019Z,389.38
2022-11-09T02:55:00.966Z,421.38
2022-11-09T02:57:48.966Z,395.63
2022-11-09T03:00:37.284Z,402.02
2022-11-09T03:03:25.918Z,411.10
2022-11-09T03:06:14.199Z,430.40
2022-11-09T03:09:09.700Z,415.80
2022-11-09T03:11:59.017Z,423.75
2022-11-09T03:14:47.001Z,414.77
2022-11-09T03:17:35.947Z,443.40
2022-11-09T03:20:24.026Z,435.35
2022-11-09T03:23:12.693Z,418.83
2022-11-09T03:26:01.448Z,431.92
2022-11-09T03:28:51.725Z,424.33
2022-11-09T03:31:39.801Z,441.38
2022-11-09T03:34:30.664Z,421.80
2022-11-09T03:37:18.908Z,427.75
2022-11-09T03:40:08.259Z,417.02
2022-11-09T03:42:56.179Z,419.88
2022-11-09T03:45:47.404Z,425.13
2022-11-09T03:48:35.363Z,419.70
2022-11-09T03:51:23.471Z,427.92
2022-11-09T03:54:11.407Z,398.30
2022-11-09T03:56:59.365Z,436.60
2022-11-09T03:59:47.283Z,409.33
2022-11-09T04:02:36.619Z,393.77
2022-11-09T04:05:25.080Z,396.67
2022-11-09T04:08:13.024Z,408.40
2022-11-09T04:11:01.230Z,414.02
2022-11-09T04:13:49.159Z,415.95
2022-11-09T04:16:37.282Z,416.15
2022-11-09T04:19:26.571Z,426.63
2022-11-09T04:22:14.581Z,403.30
2022-11-09T04:25:02.624Z,408.23
2022-11-09T04:27:55.439Z,410.80
2022-11-09T04:30:43.820Z,422.45
2022-11-09T04:33:31.798Z,395.27
2022-11-09T04:36:21.123Z,428.88
2022-11-09T04:39:09.324Z,414.67
2022-11-09T04:41:57.248Z,412.40
2022-11-09T04:44:45.178Z,418.40
2022-11-09T04:47:33.422Z,398.80
2022-11-09T04:50:21.398Z,420.45
2022-11-09T04:53:16.315Z,419.27
2022-11-09T04:56:05.168Z,414.10
2022-11-09T04:58:53.161Z,403.52
2022-11-09T05:01:41.159Z,402.77
2022-11-09T05:04:29.112Z,444.85
2022-11-09T05:07:17.125Z,399.98
2022-11-09T05:10:07.176Z,420.85
2022-11-09T05:12:58.625Z,432.88
2022-11-09T05:15:46.605Z,410.73
2022-11-09T05:18:34.628Z,401.75
2022-11-09T05:21:22.708Z,418.00
2022-11-09T05:24:09.991Z,438.17
2022-11-09T05:26:59.290Z,428.65
2022-11-09T05:29:47.207Z,422.27
2022-11-09T05:32:37.381Z,398.80
2022-11-09T05:35:25.651Z,421.33
2022-11-09T05:38:13.621Z,415.27
2022-11-09T05:41:01.538Z,450.15
2022-11-09T05:43:51.033Z,439.13
2022-11-09T05:46:39.010Z,419.40
2022-11-09T05:49:26.939Z,422.13
2022-11-09T05:52:14.861Z,432.08
2022-11-09T05:55:02.925Z,435.52
2022-11-09T05:57:50.838Z,434.45
2022-11-09T06:00:40.105Z,423.15
2022-11-09T06:03:28.045Z,426.98
2022-11-09T06:06:17.768Z,433.20
2022-11-09T06:09:05.709Z,446.45
2022-11-09T06:11:53.724Z,444.50
2022-11-09T06:14:41.670Z,457.70
2022-11-09T06:17:30.964Z,424.25
2022-11-09T06:20:18.926Z,453.45
2022-11-09T06:23:06.943Z,455.98
2022-11-09T06:25:58.608Z,421.27
2022-11-09T06:28:46.536Z,431.85
2022-11-09T06:31:34.930Z,420.60
2022-11-09T06:34:24.215Z,439.60
2022-11-09T06:37:12.142Z,423.60
2022-11-09T06:40:00.111Z,433.65
2022-11-09T06:42:48.311Z,444.55
2022-11-09T06:45:36.705Z,441.20
2022-11-09T06:48:24.941Z,451.20
2022-11-09T06:51:14.199Z,444.42
2022-11-09T06:54:02.104Z,427.27
2022-11-09T06:56:50.045Z,413.77
2022-11-09T06:59:37.951Z,428.48
2022-11-09T07:02:25.899Z,423.52
2022-11-09T07:04:53.583Z,417.80
2022-11-09T07:07:27.728Z,448.33
2022-11-09T07:09:57.337Z,455.17
2022-11-09T07:12:25.008Z,444.80
2022-11-09T07:14:52.651Z,455.95
2022-11-09T07:17:20.304Z,459.55
2022-11-09T07:19:48.032Z,439.65
2022-11-09T07:22:15.711Z,441.77
2022-11-09T07:24:44.761Z,464.83
2022-11-09T07:27:12.385Z,455.10
2022-11-09T07:29:39.995Z,426.67
2022-11-09T07:32:07.643Z,444.98
2022-11-09T07:34:35.261Z,456.73
2022-11-09T07:37:03.018Z,451.75
2022-11-09T07:39:30.679Z,445.05
2022-11-09T07:41:59.657Z,451.65
2022-11-09T07:44:28.293Z,442.67
2022-11-09T07:46:55.898Z,432.40
2022-11-09T07:49:23.560Z,463.15
2022-11-09T07:51:51.266Z,440.38
2022-11-09T07:54:18.872Z,440.10
2022-11-09T07:56:46.516Z,461.15
2022-11-09T07:59:15.471Z,436.95
2022-11-09T08:01:43.229Z,451.20
2022-11-09T08:04:10.890Z,443.52
2022-11-09T08:06:38.874Z,429.00
2022-11-09T08:09:06.562Z,455.70
2022-11-09T08:11:34.204Z,393.88
2022-11-09T08:14:01.851Z,415.75
2022-11-09T08:16:36.483Z,425.02
2022-11-09T08:19:08.798Z,434.73
2022-11-09T08:21:36.616Z,434.08
2022-11-09T08:24:05.520Z,415.20
2022-11-09T08:26:33.593Z,430.20
2022-11-09T08:29:01.224Z,410.98
2022-11-09T08:31:29.037Z,402.92
2022-11-09T08:33:58.030Z,419.77
2022-11-09T08:36:27.788Z,445.35
2022-11-09T08:38:55.492Z,426.90
2022-11-09T08:41:23.117Z,422.90
2022-11-09T08:43:50.768Z,421.27
2022-11-09T08:46:18.471Z,397.33
2022-11-09T08:48:46.163Z,429.10
2022-11-09T08:51:15.183Z,416.05
2022-11-09T08:53:42.847Z,407.13
2022-11-09T08:56:12.529Z,388.27
2022-11-09T08:58:40.604Z,405.73
2022-11-09T09:01:12.435Z,402.55
2022-11-09T09:03:44.332Z,403.00
2022-11-09T09:06:12.041Z,385.15
2022-11-09T09:08:41.005Z,403.55
2022-11-09T09:11:08.925Z,388.92
2022-11-09T09:13:40.507Z,402.83
2022-11-09T09:16:12.125Z,400.42
2022-11-09T09:18:39.779Z,391.40
2022-11-09T09:21:08.353Z,410.38
2022-11-09T09:23:36.487Z,392.17
2022-11-09T09:26:05.995Z,379.35
2022-11-09T09:28:34.734Z,400.98
2022-11-09T09:31:02.826Z,396.95
2022-11-09T09:33:30.493Z,375.13
2022-11-09T09:35:58.625Z,396.80
2022-11-09T09:38:26.905Z,381.48
2022-11-09T09:40:59.116Z,390.10
2022-11-09T09:43:39.737Z,391.80
2022-11-09T09:46:18.426Z,380.63
2022-11-09T09:48:52.562Z,377.30
2022-11-09T09:51:25.354Z,388.50
2022-11-09T09:53:58.744Z,399.77
2022-11-09T09:56:31.290Z,390.75
2022-11-09T09:59:07.227Z,385.08
2022-11-09T10:01:39.038Z,385.90
2022-11-09T10:04:16.758Z,393.17
2022-11-09T10:07:00.448Z,375.27
2022-11-09T10:09:44.791Z,403.90
2022-11-09T10:12:22.784Z,381.88
2022-11-09T10:15:14.227Z,381.70
2022-11-09T10:17:52.710Z,400.80
2022-11-09T10:20:36.366Z,419.10
2022-11-09T10:23:22.975Z,411.70
2022-11-09T10:26:04.296Z,364.10
2022-11-09T10:29:01.284Z,392.60
2022-11-09T10:31:25.185Z,403.27
2022-11-09T10:33:56.992Z,398.25
2022-11-09T10:36:31.752Z,400.98
2022-11-09T10:39:02.125Z,403.77
2022-11-09T10:41:48.601Z,388.60
2022-11-09T10:44:35.235Z,436.27
2022-11-09T10:47:24.040Z,415.23
2022-11-09T10:50:33.618Z,378.98
2022-11-09T10:53:21.620Z,383.30
2022-11-09T10:56:20.299Z,406.08
2022-11-09T10:59:37.619Z,391.08
2022-11-09T11:02:45.026Z,383.80
2022-11-09T11:05:33.348Z,389.63
2022-11-09T11:08:26.255Z,408.02
2022-11-09T11:11:37.392Z,380.05
2022-11-09T11:14:30.361Z,368.63
2022-11-09T11:17:24.076Z,405.63
2022-11-09T11:20:27.507Z,406.23
2022-11-09T11:23:16.257Z,411.13
2022-11-09T11:26:16.581Z,396.38
2022-11-09T11:29:11.051Z,399.17
2022-11-09T11:31:58.026Z,380.90
2022-11-09T11:35:01.549Z,398.77
2022-11-09T11:38:03.397Z,402.75
2022-11-09T11:41:01.706Z,397.65
2022-11-09T11:43:55.151Z,376.80
2022-11-09T11:46:47.161Z,392.67
2022-11-09T11:50:17.833Z,384.30
2022-11-09T11:53:14.232Z,409.15
2022-11-09T11:56:20.345Z,387.83
2022-11-09T11:59:34.318Z,404.85
2022-11-09T12:02:58.571Z,383.75
2022-11-09T12:06:07.240Z,394.80
2022-11-09T12:09:08.734Z,388.60
2022-11-09T12:12:12.911Z,389.27
2022-11-09T12:15:19.709Z,383.05
2022-11-09T12:18:19.128Z,393.52
2022-11-09T12:21:15.551Z,386.42
2022-11-09T12:24:20.891Z,406.00
2022-11-09T12:27:32.309Z,395.23
2022-11-09T12:30:22.044Z,406.33
2022-11-09T12:33:14.135Z,399.35
2022-11-09T12:36:06.218Z,388.77
2022-11-09T12:38:58.953Z,400.35
2022-11-09T12:41:49.855Z,405.23
2022-11-09T12:44:40.968Z,401.15
2022-11-09T12:47:31.561Z,402.02
2022-11-09T12:50:21.174Z,422.83
2022-11-09T12:53:08.528Z,416.08
2022-11-09T12:55:58.915Z,397.85
2022-11-09T12:58:46.795Z,427.35
2022-11-09T13:01:48.345Z,398.08
2022-11-09T13:04:35.273Z,424.42
2022-11-09T13:07:31.809Z,422.88
2022-11-09T13:10:34.342Z,384.38
2022-11-09T13:13:26.232Z,413.17
2022-11-09T13:16:33.755Z,417.98
2022-11-09T13:19:50.975Z,424.77
2022-11-09T13:23:00.159Z,402.67
2022-11-09T13:25:51.076Z,397.35
2022-11-09T13:29:10.600Z,432.65
2022-11-09T13:32:03.675Z,395.23
2022-11-09T13:34:52.065Z,393.05
2022-11-09T13:37:49.133Z,408.45
2022-11-09T13:40:44.680Z,433.20
2022-11-09T13:43:33.484Z,418.65
2022-11-09T13:46:30.204Z,418.15
2022-11-09T13:49:47.816Z,409.73
2022-11-09T13:52:52.213Z,412.30
2022-11-09T13:55:39.919Z,414.20
2022-11-09T13:58:31.392Z,372.30
2022-11-09T14:01:34.339Z,393.05
2022-11-09T14:04:27.061Z,412.30
2022-11-09T14:07:24.001Z,413.50
2022-11-09T14:10:22.405Z,413.85
2022-11-09T14:13:31.558Z,413.40
2022-11-09T14:16:26.537Z,405.38
2022-11-09T14:19:24.916Z,406.63
2022-11-09T14:22:17.607Z,413.27
2022-11-09T14:25:15.097Z,406.42
2022-11-09T14:28:01.458Z,413.85
2022-11-09T14:30:48.656Z,406.55
2022-11-09T14:33:36.317Z,403.85
2022-11-09T14:36:22.542Z,383.45
2022-11-09T14:39:23.341Z,404.50
2022-11-09T14:42:18.710Z,389.42
2022-11-09T14:45:07.985Z,411.25
2022-11-09T14:47:57.357Z,426.63
2022-11-09T14:50:43.822Z,386.08
2022-11-09T14:53:32.718Z,401.00
2022-11-09T14:56:23.038Z,390.10
2022-11-09T14:59:15.283Z,402.15
2022-11-09T15:02:05.496Z,393.40
2022-11-09T15:04:53.656Z,389.08
2022-11-09T15:07:39.976Z,398.88
2022-11-09T15:10:29.556Z,411.50
2022-11-09T15:13:17.846Z,383.27
2022-11-09T15:16:05.683Z,394.55
2022-11-09T15:18:51.628Z,403.52
2022-11-09T15:21:39.623Z,387.33
2022-11-09T15:24:28.034Z,388.42
2022-11-09T15:27:31.914Z,385.67
2022-11-09T15:30:31.441Z,384.75
2022-11-09T15:33:25.288Z,379.63
2022-11-09T15:36:26.356Z,380.98
2022-11-09T15:39:17.134Z,365.90
2022-11-09T15:42:03.742Z,383.77
2022-11-09T15:44:53.111Z,358.92
2022-11-09T15:47:40.697Z,351.75
2022-11-09T15:50:28.466Z,363.23
2022-11-09T15:53:15.306Z,383.45
2022-11-09T15:56:01.618Z,380.98
2022-11-09T15:58:49.167Z,394.50
2022-11-09T16:01:36.037Z,370.00
2022-11-09T16:04:23.389Z,394.85
2022-11-09T16:07:14.385Z,375.42
2022-11-09T16:10:00.710Z,391.90
2022-11-09T16:12:47.138Z,388.17
2022-11-09T16:15:34.356Z,394.98
2022-11-09T16:18:25.649Z,382.33
2022-11-09T16:21:15.403Z,378.90
2022-11-09T16:24:01.939Z,387.05
2022-11-09T16:26:48.638Z,366.52
2022-11-09T16:29:34.839Z,390.00
2022-11-09T16:32:21.309Z,381.63
2022-11-09T16:35:26.090Z,367.83
2022-11-09T16:38:14.080Z,358.02
2022-11-09T16:41:01.988Z,356.00
2022-11-09T16:43:51.226Z,372.75
2022-11-09T16:46:37.660Z,388.70
2022-11-09T16:49:23.797Z,393.88
2022-11-09T16:52:10.518Z,371.33
2022-11-09T16:54:58.183Z,376.92
2022-11-09T16:57:46.094Z,377.02
2022-11-09T17:00:55.728Z,399.85
2022-11-09T17:03:38.545Z,381.85
2022-11-09T17:06:25.157Z,387.27
2022-11-09T17:09:11.318Z,382.98
2022-11-09T17:11:59.245Z,364.58
2022-11-09T17:14:45.611Z,390.05
2022-11-09T17:17:31.747Z,367.05
2022-11-09T17:20:18.464Z,384.45
2022-11-09T17:23:04.659Z,397.90
2022-11-09T17:25:58.151Z,368.98
2022-11-09T17:28:46.101Z,366.85
2022-11-09T17:31:32.640Z,389.45
2022-11-09T17:34:19.042Z,375.85
2022-11-09T17:37:06.019Z,364.58
2022-11-09T17:39:52.328Z,396.40
2022-11-09T17:42:38.732Z,367.85
2022-11-09T17:45:26.474Z,382.60
2022-11-09T17:48:12.866Z,374.48
2022-11-09T17:50:59.114Z,371.63
2022-11-09T17:53:45.884Z,380.65
2022-11-09T17:56:34.099Z,375.77
2022-11-09T17:59:20.492Z,381.63
2022-11-09T18:02:07.791Z,364.98
2022-11-09T18:04:53.984Z,359.75
2022-11-09T18:07:40.388Z,382.08
2022-11-09T18:10:26.491Z,383.02
2022-11-09T18:13:12.755Z,363.65
2022-11-09T18:15:59.246Z,400.63
2022-11-09T18:18:47.141Z,385.23
2022-11-09T18:21:33.952Z,378.75
2022-11-09T18:24:20.426Z,371.13
2022-11-09T18:27:06.444Z,341.80
2022-11-09T18:29:56.117Z,393.20
2022-11-09T18:32:42.366Z,360.08
2022-11-09T18:35:29.720Z,392.73
2022-11-09T18:38:19.970Z,358.65
2022-11-09T18:41:09.686Z,365.42
2022-11-09T18:43:57.737Z,389.55
2022-11-09T18:46:43.889Z,351.05
2022-11-09T18:49:30.315Z,362.60
2022-11-09T18:52:17.809Z,368.20
2022-11-09T18:55:05.027Z,384.20
2022-11-09T18:57:51.035Z,393.33
2022-11-09T19:00:37.187Z,386.83
2022-11-09T19:03:23.608Z,387.42
2022-11-09T19:06:13.171Z,369.33
2022-11-09T19:09:18.398Z,404.10
2022-11-09T19:12:08.004Z,377.08
2022-11-09T19:14:54.386Z,352.10
2022-11-09T19:17:40.774Z,409.55
2022-11-09T19:20:27.121Z,373.58
2022-11-09T19:23:13.586Z,380.77
2022-11-09T19:26:02.891Z,390.35
2022-11-09T19:28:49.006Z,364.58
2022-11-09T19:31:35.926Z,381.88
2022-11-09T19:34:22.716Z,357.45
2022-11-09T19:37:09.689Z,376.02
2022-11-09T19:39:56.019Z,368.02
2022-11-09T19:42:43.730Z,354.42
2022-11-09T19:45:29.903Z,357.65
2022-11-09T19:48:16.011Z,367.58
2022-11-09T19:51:03.526Z,371.92
2022-11-09T19:53:50.750Z,359.80
2022-11-09T19:56:37.942Z,379.85
2022-11-09T19:59:25.798Z,361.30
2022-11-09T20:02:12.010Z,346.70
2022-11-09T20:04:58.535Z,377.27
2022-11-09T20:07:44.790Z,378.08
2022-11-09T20:10:30.958Z,363.85
2022-11-09T20:13:18.175Z,385.80
2022-11-09T20:16:07.907Z,361.40
2022-11-09T20:18:54.429Z,376.42
2022-11-09T20:21:41.095Z,367.02
2022-11-09T20:24:27.403Z,383.13
2022-11-09T20:27:14.515Z,366.13
2022-11-09T20:30:00.658Z,366.45
2022-11-09T20:32:48.671Z,368.80
2022-11-09T20:35:34.807Z,380.85
2022-11-09T20:38:21.856Z,377.98
2022-11-09T20:41:11.035Z,365.60
2022-11-09T20:43:57.671Z,359.58
2022-11-09T20:46:43.978Z,346.60
2022-11-09T20:49:31.603Z,376.40
2022-11-09T20:52:17.916Z,376.88
2022-11-09T20:55:04.655Z,375.70
2022-11-09T20:57:50.810Z,361.17
2022-11-09T21:00:37.887Z,374.63
2022-11-09T21:03:43.608Z,343.42
2022-11-09T21:06:51.549Z,332.80
2022-11-09T21:09:58.189Z,332.75
2022-11-09T21:13:04.722Z,351.50
2022-11-09T21:16:13.187Z,338.58
2022-11-09T21:19:19.742Z,336.77
2022-11-09T21:22:47.881Z,345.23
2022-11-09T21:26:11.866Z,323.98
2022-11-09T21:29:38.788Z,318.23
2022-11-09T21:32:45.327Z,313.25
2022-11-09T21:35:52.621Z,327.60
2022-11-09T21:39:02.101Z,328.80
2022-11-09T21:42:08.900Z,344.35
2022-11-09T21:45:15.744Z,325.48
2022-11-09T21:48:22.627Z,332.35
2022-11-09T21:51:29.598Z,321.30
2022-11-09T21:54:37.519Z,339.77
2022-11-09T21:57:44.032Z,343.10
2022-11-09T22:00:50.473Z,348.80
2022-11-09T22:03:56.911Z,334.95
2022-11-09T22:07:03.476Z,319.73
2022-11-09T22:10:11.839Z,327.13
2022-11-09T22:13:36.331Z,332.90
2022-11-09T22:16:42.875Z,310.15
2022-11-09T22:20:07.200Z,319.08
2022-11-09T22:23:13.830Z,313.42
2022-11-09T22:26:21.623Z,307.80
2022-11-09T22:29:28.130Z,320.75
2022-11-09T22:32:34.829Z,324.70
2022-11-09T22:35:41.543Z,310.63
2022-11-09T22:38:48.356Z,298.52
2022-11-09T22:41:56.409Z,309.27
2022-11-09T22:45:03.384Z,328.98
2022-11-09T22:48:10.171Z,335.02
2022-11-09T22:51:18.387Z,307.20
2022-11-09T22:54:24.947Z,321.60
2022-11-09T22:57:32.939Z,316.75
2022-11-09T23:00:41.580Z,305.50
2022-11-09T23:03:48.122Z,307.45
2022-11-09T23:06:54.700Z,312.25
2022-11-09T23:10:01.303Z,307.15
2022-11-09T23:13:08.967Z,301.35
2022-11-09T23:16:15.300Z,330.63
2022-11-09T23:19:21.672Z,302.48
2022-11-09T23:22:27.950Z,308.13
2022-11-09T23:25:52.176Z,276.80
2022-11-09T23:29:00.593Z,300.27
2022-11-09T23:32:07.005Z,288.15
2022-11-09T23:35:14.013Z,297.42
2022-11-09T23:38:20.409Z,278.45
2022-11-09T23:41:26.770Z,290.60
2022-11-09T23:44:34.586Z,300.42
2022-11-09T23:47:40.939Z,286.83
2022-11-09T23:50:48.609Z,313.92
2022-11-09T23:53:55.240Z,284.02
2022-11-09T23:57:01.534Z,266.73
